createdAt,value
2019-03-20T00:03:16.063Z,1.81
2019-03-20T00:08:18.805Z,2.19
2019-03-20T00:13:21.916Z,1.62
2019-03-20T00:18:24.752Z,1.40
2019-03-20T00:23:27.928Z,1.57
2019-03-20T00:28:30.933Z,1.42
2019-03-20T00:33:34.142Z,1.43
2019-03-20T00:38:37.029Z,1.55
2019-03-20T00:43:39.745Z,1.56
2019-03-20T00:48:42.703Z,1.63
2019-03-20T00:53:45.574Z,1.43
2019-03-20T00:58:48.450Z,1.57
2019-03-20T01:03:51.301Z,1.71
2019-03-20T01:08:54.417Z,1.67
2019-03-20T01:13:57.310Z,1.49
2019-03-20T01:18:59.999Z,1.50
2019-03-20T01:24:02.931Z,1.73
2019-03-20T01:29:05.903Z,1.49
2019-03-20T01:34:08.761Z,1.64
2019-03-20T01:39:11.611Z,1.79
2019-03-20T01:44:14.574Z,1.79
2019-03-20T01:49:17.366Z,2.27
2019-03-20T01:54:20.485Z,2.20
2019-03-20T01:59:23.596Z,2.25
2019-03-20T02:04:26.428Z,2.17
2019-03-20T02:09:29.459Z,2.29
2019-03-20T02:14:32.267Z,2.39
2019-03-20T02:19:35.310Z,2.12
2019-03-20T02:24:38.241Z,2.48
2019-03-20T02:29:41.322Z,2.43
2019-03-20T02:34:44.260Z,2.77
2019-03-20T02:39:47.015Z,2.61
2019-03-20T02:44:49.786Z,2.71
2019-03-20T02:49:52.677Z,2.85
2019-03-20T02:54:55.585Z,2.73
2019-03-20T02:59:58.208Z,2.48
2019-03-20T03:05:01.087Z,3.01
2019-03-20T03:10:03.896Z,2.90
2019-03-20T03:15:06.836Z,2.59
2019-03-20T03:20:09.961Z,2.93
2019-03-20T03:25:12.967Z,3.19
2019-03-20T03:30:15.934Z,2.97
2019-03-20T03:35:20.038Z,3.32
2019-03-20T03:40:21.366Z,3.10
2019-03-20T03:45:24.303Z,3.14
2019-03-20T03:50:27.339Z,3.33
2019-03-20T03:55:30.175Z,3.09
2019-03-20T04:00:33.037Z,3.18
2019-03-20T04:05:35.959Z,3.23
2019-03-20T04:10:38.677Z,3.22
2019-03-20T04:15:41.588Z,3.39
2019-03-20T04:20:44.554Z,2.84
2019-03-20T04:25:47.700Z,2.92
2019-03-20T04:30:50.546Z,2.07
2019-03-20T04:35:53.601Z,2.42
2019-03-20T04:40:56.578Z,2.36
2019-03-20T04:45:59.488Z,2.57
2019-03-20T04:51:02.544Z,2.20
2019-03-20T04:56:05.154Z,2.40
2019-03-20T05:01:08.018Z,2.27
2019-03-20T05:06:10.750Z,2.82
2019-03-20T05:11:13.455Z,2.16
2019-03-20T05:16:16.351Z,2.36
2019-03-20T05:21:19.310Z,2.33
2019-03-20T05:26:21.970Z,2.68
2019-03-20T05:31:25.302Z,2.21
2019-03-20T05:36:28.280Z,2.09
2019-03-20T05:41:31.176Z,2.09
2019-03-20T05:46:33.802Z,2.00
2019-03-20T05:51:36.662Z,2.36
2019-03-20T05:56:39.625Z,2.38
2019-03-20T06:01:42.517Z,2.69
2019-03-20T06:06:45.192Z,2.54
2019-03-20T06:11:47.837Z,2.59
2019-03-20T06:16:50.687Z,2.43
2019-03-20T06:21:54.431Z,2.61
2019-03-20T06:26:57.424Z,2.69
2019-03-20T06:32:00.294Z,2.50
2019-03-20T06:37:03.331Z,2.80
2019-03-20T06:42:06.189Z,2.30
2019-03-20T06:47:09.355Z,3.38
2019-03-20T06:52:12.365Z,2.95
2019-03-20T06:57:15.419Z,2.78
2019-03-20T07:02:17.559Z,2.65
2019-03-20T07:07:20.210Z,2.27
2019-03-20T07:12:22.921Z,2.29
2019-03-20T07:17:25.938Z,2.53
2019-03-20T07:22:28.622Z,2.33
2019-03-20T07:27:31.801Z,1.81
2019-03-20T07:32:34.699Z,2.25
2019-03-20T07:37:39.467Z,2.21
2019-03-20T07:42:42.431Z,2.43
2019-03-20T07:47:45.235Z,2.18
2019-03-20T07:52:48.026Z,2.19
2019-03-20T07:57:50.938Z,2.91
2019-03-20T08:02:53.727Z,1.97
2019-03-20T08:08:06.702Z,2.12
2019-03-20T08:12:59.167Z,2.02
2019-03-20T08:18:02.025Z,1.95
2019-03-20T08:23:05.179Z,1.82
2019-03-20T08:28:08.109Z,1.81
2019-03-20T08:33:10.982Z,2.20
2019-03-20T08:38:18.268Z,2.37
2019-03-20T08:43:16.332Z,2.04
2019-03-20T08:48:19.112Z,1.89
2019-03-20T08:53:22.017Z,1.81
2019-03-20T08:58:24.684Z,1.84
2019-03-20T09:03:27.410Z,1.95
2019-03-20T09:08:30.269Z,1.65
2019-03-20T09:13:33.020Z,1.58
2019-03-20T09:18:36.077Z,1.52
2019-03-20T09:23:40.725Z,1.91
2019-03-20T09:28:41.506Z,1.19
2019-03-20T09:33:45.074Z,2.16
2019-03-20T09:38:48.120Z,1.51
2019-03-20T09:43:51.119Z,1.67
2019-03-20T09:48:54.077Z,1.83
2019-03-20T09:53:57.084Z,1.90
2019-03-20T09:58:59.818Z,1.83
2019-03-20T10:04:02.690Z,1.66
2019-03-20T10:09:05.444Z,1.90
2019-03-20T10:14:08.217Z,1.59
2019-03-20T10:19:10.925Z,1.89
2019-03-20T10:24:13.887Z,1.62
2019-03-20T10:29:16.633Z,2.02
2019-03-20T10:34:19.469Z,1.72
2019-03-20T10:39:22.475Z,1.46
2019-03-20T10:44:25.412Z,1.76
2019-03-20T10:49:28.344Z,1.66
2019-03-20T10:54:31.212Z,1.66
2019-03-20T10:59:34.164Z,1.61
2019-03-20T11:04:37.168Z,1.60
2019-03-20T11:09:39.779Z,1.57
2019-03-20T11:14:42.499Z,1.67
2019-03-20T11:19:45.447Z,1.81
2019-03-20T11:24:48.539Z,1.78
2019-03-20T11:29:51.541Z,1.98
2019-03-20T11:34:54.544Z,1.87
2019-03-20T11:39:57.776Z,1.54
2019-03-20T11:45:00.670Z,1.77
2019-03-20T11:50:03.627Z,1.52
2019-03-20T11:55:06.292Z,1.61
2019-03-20T12:00:09.324Z,1.37
2019-03-20T12:05:12.069Z,1.52
2019-03-20T12:10:14.999Z,1.31
2019-03-20T12:15:17.740Z,1.31
2019-03-20T12:20:20.805Z,1.23
2019-03-20T12:25:23.738Z,1.02
2019-03-20T12:30:26.674Z,1.26
2019-03-20T12:35:29.796Z,1.19
2019-03-20T12:40:32.701Z,1.21
2019-03-20T12:45:35.643Z,1.18
2019-03-20T12:50:38.777Z,1.22
2019-03-20T12:55:41.671Z,1.31
2019-03-20T13:05:44.580Z,1.09
2019-03-20T13:10:47.542Z,1.09
2019-03-20T13:15:50.484Z,0.94
2019-03-20T13:20:53.478Z,1.05
2019-03-20T13:25:56.307Z,1.25
2019-03-20T13:30:59.597Z,0.92
2019-03-20T13:36:02.460Z,1.03
2019-03-20T13:41:05.301Z,1.20
2019-03-20T13:46:08.123Z,1.07
2019-03-20T13:51:11.107Z,0.92
2019-03-20T13:56:14.035Z,1.09
2019-03-20T14:01:16.834Z,0.99
2019-03-20T14:06:19.736Z,0.83
2019-03-20T14:11:22.633Z,0.94
2019-03-20T14:16:25.476Z,1.01
2019-03-20T14:21:28.413Z,1.14
2019-03-20T14:26:31.485Z,1.06
2019-03-20T14:31:34.186Z,0.97
2019-03-20T14:36:37.200Z,1.15
2019-03-20T14:41:40.189Z,0.93
2019-03-20T14:46:43.228Z,0.87
2019-03-20T14:51:46.102Z,0.98
2019-03-20T14:56:49.632Z,0.93
2019-03-20T15:01:52.691Z,1.12
2019-03-20T15:06:55.771Z,0.89
2019-03-20T15:11:58.510Z,0.89
2019-03-20T15:17:01.765Z,0.94
2019-03-20T15:22:04.859Z,1.08
2019-03-20T15:27:07.797Z,0.90
2019-03-20T15:32:10.935Z,1.00
2019-03-20T15:37:14.170Z,1.06
2019-03-20T20:18:36.058Z,1.03
2019-03-20T20:24:52.490Z,3.21
2019-03-20T20:29:55.695Z,6.99
2019-03-20T20:34:58.689Z,2.71
2019-03-20T20:40:01.781Z,5.16
2019-03-20T20:45:04.975Z,4.05
2019-03-20T20:50:08.086Z,2.53
2019-03-20T20:55:11.310Z,1.70
2019-03-20T21:00:14.151Z,1.89
2019-03-20T21:05:17.368Z,2.12
2019-03-20T21:10:20.271Z,2.01
2019-03-20T21:15:23.348Z,1.92
2019-03-20T21:20:26.243Z,1.92
2019-03-20T21:25:29.031Z,3.35
2019-03-20T21:30:30.540Z,3.59
2019-03-20T21:35:33.392Z,2.46
2019-03-20T21:40:36.110Z,4.15
2019-03-20T21:45:39.204Z,7.30
2019-03-20T21:50:42.267Z,8.80
2019-03-20T21:55:45.302Z,5.68
2019-03-20T22:00:48.301Z,2.30
2019-03-20T22:05:51.153Z,2.72
2019-03-20T22:10:54.143Z,1.72
2019-03-20T22:15:57.070Z,1.82
2019-03-20T22:20:59.892Z,2.04
2019-03-20T22:26:02.863Z,2.03
2019-03-20T22:31:05.671Z,2.29
2019-03-20T22:36:08.899Z,2.63
2019-03-20T22:41:11.983Z,2.22
2019-03-20T22:46:14.808Z,2.06
2019-03-20T22:51:17.696Z,2.21
2019-03-20T22:56:20.628Z,2.40
2019-03-20T23:01:23.279Z,2.60
2019-03-20T23:06:26.134Z,2.89
2019-03-20T23:11:28.996Z,2.32
2019-03-20T23:16:31.956Z,2.27
2019-03-20T23:21:34.645Z,2.52
2019-03-20T23:26:37.478Z,2.54
2019-03-20T23:31:40.218Z,2.21
2019-03-20T23:36:43.175Z,2.47
2019-03-20T23:41:45.894Z,2.02
2019-03-20T23:46:48.977Z,2.42
2019-03-20T23:51:51.895Z,2.29
2019-03-20T23:56:54.867Z,2.58
